createdAt,value
2018-07-19T00:00:14.210Z,24.57
2018-07-19T00:02:44.442Z,24.37
2018-07-19T00:05:14.662Z,23.33
2018-07-19T00:07:45.068Z,25.83
2018-07-19T00:10:15.409Z,26.67
2018-07-19T00:12:45.751Z,28.33
2018-07-19T00:15:16.354Z,26.33
2018-07-19T00:17:47.093Z,30.43
2018-07-19T00:20:17.693Z,25.47
2018-07-19T00:22:48.428Z,26.90
2018-07-19T00:25:19.060Z,25.80
2018-07-19T00:27:52.521Z,28.00
2018-07-19T00:30:23.261Z,28.87
2018-07-19T00:32:54.781Z,25.60
2018-07-19T00:35:27.323Z,26.53
2018-07-19T00:37:57.953Z,27.77
2018-07-19T00:40:28.504Z,26.43
2018-07-19T00:42:59.236Z,27.13
2018-07-19T00:45:30.966Z,27.00
2018-07-19T00:48:01.558Z,25.83
2018-07-19T00:50:32.928Z,26.40
2018-07-19T00:53:03.511Z,26.97
2018-07-19T00:55:34.393Z,24.37
2018-07-19T00:58:04.990Z,24.60
2018-07-19T01:00:36.263Z,27.20
2018-07-19T01:03:06.958Z,28.23
2018-07-19T01:05:37.455Z,28.67
2018-07-19T01:08:08.017Z,26.77
2018-07-19T01:10:38.762Z,27.77
2018-07-19T01:13:09.437Z,30.60
2018-07-19T01:15:40.157Z,31.50
2018-07-19T01:18:10.883Z,30.87
2018-07-19T01:20:41.477Z,31.57
2018-07-19T01:23:12.021Z,32.17
2018-07-19T01:25:42.779Z,32.97
2018-07-19T01:28:14.193Z,31.17
2018-07-19T01:30:45.702Z,34.17
2018-07-19T01:33:17.024Z,32.70
2018-07-19T01:35:47.643Z,33.70
2018-07-19T01:38:18.478Z,32.97
2018-07-19T01:40:49.166Z,34.70
2018-07-19T01:43:20.776Z,32.50
2018-07-19T01:45:51.409Z,34.27
2018-07-19T01:48:22.880Z,33.57
2018-07-19T01:50:53.630Z,34.47
2018-07-19T01:53:24.250Z,34.20
2018-07-19T01:55:55.141Z,34.07
2018-07-19T01:58:25.980Z,31.13
2018-07-19T02:00:56.836Z,35.63
2018-07-19T02:03:27.732Z,35.37
2018-07-19T02:05:59.176Z,38.93
2018-07-19T02:08:29.644Z,37.57
2018-07-19T02:11:00.476Z,43.40
2018-07-19T02:13:31.278Z,39.37
2018-07-19T02:16:01.869Z,37.47
2018-07-19T02:18:32.330Z,37.87
2018-07-19T02:21:02.828Z,40.37
2018-07-19T02:23:33.313Z,39.73
2018-07-19T02:26:04.159Z,40.00
2018-07-19T02:28:36.000Z,39.77
2018-07-19T02:31:06.694Z,38.90
2018-07-19T02:33:37.415Z,41.50
2018-07-19T02:36:08.391Z,40.33
2018-07-19T02:38:39.388Z,41.77
2018-07-19T02:41:10.368Z,39.57
2018-07-19T02:43:41.950Z,36.97
2018-07-19T02:46:12.609Z,37.80
2018-07-19T02:48:43.209Z,38.13
2018-07-19T02:51:15.410Z,37.13
2018-07-19T02:53:45.980Z,41.07
2018-07-19T02:56:16.881Z,38.67
2018-07-19T02:58:47.402Z,35.87
2018-07-19T03:01:19.624Z,35.70
2018-07-19T03:03:50.124Z,35.37
2018-07-19T03:06:20.875Z,33.13
2018-07-19T03:08:51.877Z,34.20
2018-07-19T03:11:22.485Z,33.43
2018-07-19T03:13:53.058Z,32.53
2018-07-19T03:16:23.741Z,32.43
2018-07-19T03:18:57.131Z,34.20
2018-07-19T03:21:27.690Z,31.33
2018-07-19T03:23:58.044Z,34.67
2018-07-19T03:26:28.684Z,34.47
2018-07-19T03:28:59.463Z,32.40
2018-07-19T03:31:29.936Z,33.33
2018-07-19T03:34:01.317Z,31.70
2018-07-19T03:36:31.976Z,32.27
2018-07-19T03:39:02.687Z,30.37
2018-07-19T03:41:33.396Z,29.33
2018-07-19T03:44:04.028Z,30.43
2018-07-19T03:46:35.626Z,29.10
2018-07-19T03:49:06.143Z,32.47
2018-07-19T03:51:36.783Z,28.77
2018-07-19T03:54:07.692Z,30.13
2018-07-19T03:56:39.313Z,31.40
2018-07-19T03:59:09.944Z,27.53
2018-07-19T04:01:40.576Z,30.23
2018-07-19T04:04:11.348Z,28.47
2018-07-19T04:06:42.019Z,30.30
2018-07-19T04:09:12.897Z,31.40
2018-07-19T04:11:43.750Z,31.07
2018-07-19T04:14:14.535Z,31.87
2018-07-19T04:16:45.014Z,27.80
2018-07-19T04:19:16.082Z,30.00
2018-07-19T04:21:47.280Z,32.57
2018-07-19T04:24:17.840Z,28.13
2018-07-19T04:26:48.542Z,32.43
2018-07-19T04:29:19.314Z,27.83
2018-07-19T04:31:50.852Z,29.87
2018-07-19T04:34:21.751Z,28.73
2018-07-19T04:36:53.020Z,27.00
2018-07-19T04:39:23.914Z,32.47
2018-07-19T04:41:54.626Z,27.77
2018-07-19T04:44:25.410Z,28.17
2018-07-19T04:46:58.602Z,27.67
2018-07-19T04:49:31.804Z,27.80
2018-07-19T04:52:03.175Z,26.67
2018-07-19T04:54:33.709Z,26.20
2018-07-19T04:57:04.888Z,27.47
2018-07-19T04:59:35.674Z,33.90
2018-07-19T05:02:07.343Z,23.97
2018-07-19T05:04:37.994Z,26.57
2018-07-19T05:07:09.389Z,25.03
2018-07-19T05:09:41.055Z,25.50
2018-07-19T05:12:11.699Z,24.27
2018-07-19T05:14:42.243Z,24.47
2018-07-19T05:17:12.730Z,25.53
2018-07-19T05:19:43.361Z,29.37
2018-07-19T05:22:14.021Z,28.27
2018-07-19T05:24:44.712Z,23.37
2018-07-19T05:27:15.533Z,25.70
2018-07-19T05:29:45.995Z,23.63
2018-07-19T05:32:16.708Z,23.40
2018-07-19T05:34:47.426Z,22.83
2018-07-19T05:37:17.879Z,22.83
2018-07-19T05:39:48.451Z,24.63
2018-07-19T05:42:20.415Z,22.97
2018-07-19T05:44:51.171Z,22.27
2018-07-19T05:47:21.987Z,25.53
2018-07-19T05:49:52.768Z,21.27
2018-07-19T05:52:23.834Z,20.10
2018-07-19T05:54:54.494Z,25.97
2018-07-19T05:57:25.094Z,21.40
2018-07-19T05:59:56.065Z,18.93
2018-07-19T06:02:26.737Z,21.90
2018-07-19T06:04:57.445Z,20.17
2018-07-19T06:07:28.155Z,23.17
2018-07-19T06:09:59.548Z,24.67
2018-07-19T06:12:30.003Z,20.03
2018-07-19T06:15:00.847Z,22.17
2018-07-19T06:17:31.444Z,20.47
2018-07-19T06:20:03.552Z,21.60
2018-07-19T06:22:34.109Z,19.00
2018-07-19T06:25:05.123Z,19.40
2018-07-19T06:27:35.936Z,18.13
2018-07-19T06:30:07.677Z,18.83
2018-07-19T06:32:39.289Z,18.30
2018-07-19T06:35:10.085Z,19.53
2018-07-19T06:37:40.856Z,18.60
2018-07-19T06:40:11.500Z,17.93
2018-07-19T06:42:42.229Z,17.53
2018-07-19T06:45:12.864Z,19.23
2018-07-19T06:47:43.413Z,18.50
2018-07-19T06:50:14.724Z,16.90
2018-07-19T06:52:45.386Z,15.77
2018-07-19T06:55:16.024Z,16.53
2018-07-19T06:57:46.778Z,16.40
2018-07-19T07:00:18.036Z,16.70
2018-07-19T07:02:48.658Z,17.93
2018-07-19T07:05:19.570Z,16.60
2018-07-19T07:07:50.218Z,22.90
2018-07-19T07:10:20.729Z,18.50
2018-07-19T07:12:51.821Z,18.60
2018-07-19T07:15:23.337Z,19.93
2018-07-19T07:17:54.189Z,18.40
2018-07-19T07:20:25.942Z,15.57
2018-07-19T07:22:56.774Z,17.43
2018-07-19T07:25:27.836Z,15.17
2018-07-19T07:27:58.567Z,18.20
2018-07-19T07:30:29.186Z,15.70
2018-07-19T07:33:00.478Z,15.50
2018-07-19T07:35:31.150Z,19.13
2018-07-19T07:38:01.912Z,18.03
2018-07-19T07:40:33.371Z,16.30
2018-07-19T07:43:04.273Z,15.80
2018-07-19T07:45:34.853Z,16.93
2018-07-19T07:48:05.827Z,19.30
2018-07-19T07:51:56.877Z,17.70
2018-07-19T07:54:28.634Z,18.17
2018-07-19T07:56:59.626Z,16.27
2018-07-19T07:59:34.875Z,17.60
2018-07-19T08:02:05.942Z,19.20
2018-07-19T08:04:37.267Z,18.00
2018-07-19T08:07:07.952Z,17.33
2018-07-19T08:09:38.756Z,16.60
2018-07-19T08:12:09.412Z,17.67
2018-07-19T08:14:40.209Z,17.53
2018-07-19T08:17:10.774Z,16.30
2018-07-19T08:19:41.222Z,18.13
2018-07-19T08:22:11.866Z,22.90
2018-07-19T08:24:42.461Z,19.03
2018-07-19T08:27:13.339Z,18.17
2018-07-19T08:29:44.746Z,21.50
2018-07-19T08:32:15.467Z,29.10
2018-07-19T08:34:46.472Z,19.43
2018-07-19T08:37:17.081Z,22.87
2018-07-19T08:39:48.089Z,21.80
2018-07-19T08:42:18.982Z,21.43
2018-07-19T08:44:49.731Z,23.03
2018-07-19T08:47:20.482Z,19.50
2018-07-19T08:49:51.325Z,28.83
2018-07-19T08:52:21.915Z,29.60
2018-07-19T08:54:52.697Z,24.47
2018-07-19T08:57:23.439Z,22.90
2018-07-19T08:59:55.256Z,23.33
2018-07-19T09:02:26.057Z,18.73
2018-07-19T09:04:56.618Z,20.30
2018-07-19T09:07:27.049Z,23.07
2018-07-19T09:09:57.763Z,21.83
2018-07-19T09:12:28.353Z,18.90
2018-07-19T09:14:58.825Z,19.53
2018-07-19T09:17:29.101Z,20.90
2018-07-19T09:19:59.594Z,19.40
2018-07-19T15:53:17.811Z,18.53
2018-07-19T15:55:48.178Z,11.77
2018-07-19T15:58:19.607Z,13.57
2018-07-19T16:00:50.284Z,14.43
2018-07-19T16:03:20.643Z,18.67
2018-07-19T16:05:51.044Z,22.73
2018-07-19T16:08:21.196Z,22.40
2018-07-19T16:10:51.579Z,26.50
2018-07-19T16:13:21.814Z,25.33
2018-07-19T16:15:52.037Z,31.47
2018-07-19T16:18:22.563Z,38.67
2018-07-19T16:20:52.783Z,32.03
2018-07-19T16:23:23.142Z,30.90
2018-07-19T16:25:53.584Z,36.20
2018-07-19T16:28:24.115Z,29.47
2018-07-19T16:30:54.508Z,29.57
2018-07-19T16:33:24.835Z,25.20
2018-07-19T16:35:55.316Z,26.87
2018-07-19T16:38:25.927Z,26.93
2018-07-19T16:40:56.314Z,27.40
2018-07-19T16:43:26.446Z,23.97
2018-07-19T16:45:56.806Z,26.07
2018-07-19T16:48:27.254Z,27.20
2018-07-19T16:50:57.648Z,24.37
2018-07-19T16:53:28.045Z,23.73
2018-07-19T16:55:58.563Z,25.83
2018-07-19T16:58:28.759Z,23.97
2018-07-19T17:00:59.017Z,27.70
2018-07-19T17:03:29.288Z,25.77
2018-07-19T17:05:59.656Z,25.50
2018-07-19T17:08:30.043Z,25.37
2018-07-19T17:11:00.280Z,28.00
2018-07-19T17:13:30.606Z,29.60
2018-07-19T17:16:00.732Z,30.10
2018-07-19T17:18:30.999Z,26.07
2018-07-19T17:21:01.404Z,26.80
2018-07-19T17:23:31.730Z,26.27
2018-07-19T17:26:01.954Z,26.83
2018-07-19T17:28:32.604Z,29.37
2018-07-19T17:31:02.827Z,32.00
2018-07-19T17:33:33.196Z,31.87
2018-07-19T17:36:03.185Z,30.67
2018-07-19T17:38:33.485Z,34.87
2018-07-19T17:41:04.677Z,35.63
2018-07-19T17:43:34.910Z,38.30
2018-07-19T17:46:05.229Z,35.23
2018-07-19T17:48:35.481Z,35.87
2018-07-19T17:51:05.775Z,35.10
2018-07-19T17:53:36.151Z,40.80
2018-07-19T17:56:06.391Z,38.73
2018-07-19T17:58:36.873Z,39.90
2018-07-19T18:01:07.963Z,44.80
2018-07-19T18:03:38.303Z,40.03
2018-07-19T18:06:08.432Z,42.90
2018-07-19T18:08:38.748Z,39.50
2018-07-19T18:11:09.009Z,40.20
2018-07-19T18:13:40.091Z,42.00
2018-07-19T18:16:10.451Z,45.43
2018-07-19T18:18:40.724Z,38.77
2018-07-19T18:21:11.184Z,37.77
2018-07-19T18:23:41.663Z,39.37
2018-07-19T18:26:11.951Z,39.53
2018-07-19T18:28:42.115Z,37.17
2018-07-19T18:31:12.706Z,43.13
2018-07-19T18:33:42.926Z,42.60
2018-07-19T18:36:14.132Z,39.23
2018-07-19T18:38:45.234Z,37.97
2018-07-19T18:41:15.591Z,37.23
2018-07-19T18:43:46.130Z,36.77
2018-07-19T18:46:17.452Z,35.60
2018-07-19T18:48:47.690Z,38.03
2018-07-19T18:51:18.414Z,41.70
2018-07-19T18:53:49.084Z,43.00
2018-07-19T18:56:19.642Z,38.87
2018-07-19T18:58:49.757Z,37.43
2018-07-19T19:01:19.847Z,38.97
2018-07-19T19:03:50.474Z,40.97
2018-07-19T19:06:21.304Z,44.73
2018-07-19T19:08:51.515Z,44.30
2018-07-19T19:11:21.701Z,41.30
2018-07-19T19:13:52.339Z,40.63
2018-07-19T19:16:22.739Z,53.20
2018-07-19T19:18:52.991Z,48.70
2018-07-19T19:21:23.356Z,42.40
2018-07-19T19:23:53.515Z,45.33
2018-07-19T19:26:23.754Z,38.90
2018-07-19T19:28:53.963Z,43.70
2018-07-19T19:31:24.385Z,42.47
2018-07-19T19:33:54.897Z,40.43
2018-07-19T19:36:25.217Z,40.10
2018-07-19T19:38:55.499Z,41.80
2018-07-19T19:41:25.968Z,44.67
2018-07-19T19:43:56.158Z,41.37
2018-07-19T19:46:26.577Z,41.30
2018-07-19T19:48:56.987Z,41.03
2018-07-19T19:51:27.281Z,43.97
2018-07-19T19:53:57.587Z,45.00
2018-07-19T19:56:28.743Z,49.93
2018-07-19T19:58:59.037Z,47.27
2018-07-19T20:01:29.516Z,48.37
2018-07-19T20:03:59.951Z,43.77
2018-07-19T20:06:30.538Z,47.50
2018-07-19T20:09:00.871Z,39.37
2018-07-19T20:11:31.427Z,38.27
2018-07-19T20:14:01.969Z,43.03
2018-07-19T20:16:32.183Z,43.90
2018-07-19T20:19:02.313Z,44.03
2018-07-19T20:21:32.595Z,44.03
2018-07-19T20:24:02.713Z,39.83
2018-07-19T20:26:32.845Z,37.53
2018-07-19T20:29:03.204Z,40.10
2018-07-19T20:31:34.209Z,40.57
2018-07-19T20:34:04.569Z,40.03
2018-07-19T20:36:34.861Z,38.27
2018-07-19T20:39:05.851Z,41.07
2018-07-19T20:41:35.900Z,42.40
2018-07-19T20:44:06.183Z,39.10
2018-07-19T20:46:36.340Z,41.10
2018-07-19T20:49:06.440Z,40.97
2018-07-19T20:51:36.652Z,47.23
2018-07-19T20:54:06.883Z,40.07
2018-07-19T20:56:37.014Z,38.67
2018-07-19T20:59:07.309Z,45.87
2018-07-19T21:01:37.652Z,38.27
2018-07-19T21:04:07.768Z,34.10
2018-07-19T21:22:57.880Z,39.67
2018-07-19T21:25:28.687Z,36.50
2018-07-19T21:27:58.896Z,37.47
2018-07-19T21:30:29.120Z,35.63
2018-07-19T21:32:59.399Z,33.97
2018-07-19T21:35:29.590Z,29.83
2018-07-19T21:37:59.761Z,33.23
2018-07-19T21:40:30.282Z,30.23
2018-07-19T21:43:00.380Z,33.30
2018-07-19T21:45:30.524Z,31.33
2018-07-19T21:48:00.604Z,28.23
2018-07-19T21:50:30.841Z,33.87
2018-07-19T21:53:01.253Z,29.77
2018-07-19T21:55:31.695Z,30.47
2018-07-19T21:58:01.893Z,37.87
2018-07-19T22:00:32.309Z,32.27
2018-07-19T22:03:02.626Z,35.87
2018-07-19T22:05:32.517Z,42.50
2018-07-19T22:08:02.872Z,43.07
2018-07-19T22:10:33.413Z,51.13
2018-07-19T22:13:03.640Z,46.50
2018-07-19T22:15:33.621Z,48.60
2018-07-19T22:18:04.925Z,48.57
2018-07-19T22:20:36.243Z,47.97
2018-07-19T22:23:06.436Z,48.47
2018-07-19T22:25:36.780Z,49.47
2018-07-19T22:28:07.316Z,44.53
2018-07-19T22:30:37.537Z,43.77
2018-07-19T22:33:07.716Z,57.17
2018-07-19T22:35:38.128Z,42.87
2018-07-19T22:38:08.250Z,48.03
2018-07-19T22:40:38.270Z,40.77
2018-07-19T22:43:08.349Z,41.50
2018-07-19T22:45:38.548Z,42.67
2018-07-19T22:48:08.842Z,37.30
2018-07-19T22:50:38.902Z,37.77
2018-07-19T22:53:09.156Z,38.60
2018-07-19T22:55:39.602Z,38.60
2018-07-19T22:58:09.686Z,41.97
2018-07-19T23:00:39.899Z,32.87
2018-07-19T23:03:10.145Z,31.60
2018-07-19T23:05:40.369Z,37.43
2018-07-19T23:08:10.692Z,41.00
2018-07-19T23:10:40.919Z,32.90
2018-07-19T23:13:11.042Z,32.53
2018-07-19T23:15:41.190Z,37.50
2018-07-19T23:18:11.167Z,32.70
2018-07-19T23:20:41.374Z,30.67
2018-07-19T23:23:13.782Z,33.53
2018-07-19T23:25:43.955Z,32.23
2018-07-19T23:28:14.267Z,34.27
2018-07-19T23:30:44.655Z,30.87
2018-07-19T23:33:14.956Z,30.40
2018-07-19T23:35:50.098Z,35.83
2018-07-19T23:38:28.291Z,30.87
2018-07-19T23:40:59.838Z,26.90
2018-07-19T23:43:32.984Z,36.60
2018-07-19T23:46:18.143Z,32.97
2018-07-19T23:48:48.907Z,31.10
2018-07-19T23:51:20.377Z,28.37
2018-07-19T23:53:50.435Z,28.73
2018-07-19T23:56:20.698Z,33.90
2018-07-19T23:58:50.894Z,35.13
